createdAt,value
2023-04-02T00:02:23.267Z,12.87
2023-04-02T00:05:16.780Z,12.96
2023-04-02T00:07:49.079Z,13.00
2023-04-02T00:10:32.830Z,12.61
2023-04-02T00:13:23.783Z,12.71
2023-04-02T00:15:57.837Z,12.52
2023-04-02T00:18:27.512Z,12.57
2023-04-02T00:21:09.175Z,12.72
2023-04-02T00:23:41.363Z,12.73
2023-04-02T00:26:32.735Z,12.66
2023-04-02T00:29:01.421Z,12.72
2023-04-02T00:31:32.268Z,12.62
2023-04-02T00:34:02.478Z,12.67
2023-04-02T00:36:35.510Z,12.72
2023-04-02T00:39:08.538Z,12.65
2023-04-02T00:41:38.853Z,12.48
2023-04-02T00:44:06.631Z,12.43
2023-04-02T00:46:47.258Z,12.57
2023-04-02T00:49:25.059Z,12.27
2023-04-02T00:52:00.271Z,12.47
2023-04-02T00:54:31.420Z,12.57
2023-04-02T00:56:59.420Z,12.36
2023-04-02T00:59:36.918Z,12.44
2023-04-02T01:02:18.660Z,12.77
2023-04-02T01:04:57.370Z,12.78
2023-04-02T01:07:45.469Z,12.75
2023-04-02T01:10:51.945Z,12.86
2023-04-02T01:13:38.244Z,12.81
2023-04-02T01:16:14.204Z,12.77
2023-04-02T01:18:46.485Z,12.78
2023-04-02T01:21:32.770Z,12.92
2023-04-02T01:24:15.148Z,12.99
2023-04-02T01:26:59.658Z,12.77
2023-04-02T01:29:42.125Z,12.84
2023-04-02T01:32:14.164Z,12.78
2023-04-02T01:34:44.858Z,12.68
2023-04-02T01:37:18.050Z,12.51
2023-04-02T01:40:05.646Z,12.64
2023-04-02T01:43:06.533Z,12.23
2023-04-02T01:45:35.204Z,12.28
2023-04-02T01:48:14.735Z,12.36
2023-04-02T01:50:47.886Z,12.45
2023-04-02T01:53:21.010Z,12.34
2023-04-02T01:55:53.231Z,12.25
2023-04-02T02:02:24.159Z,12.20
2023-04-02T02:04:52.029Z,12.05
2023-04-02T02:07:21.662Z,12.17
2023-04-02T02:09:56.354Z,12.02
2023-04-02T02:16:15.117Z,11.95
2023-04-02T02:18:43.330Z,11.90
2023-04-02T02:22:27.277Z,12.07
2023-04-02T02:25:15.697Z,11.98
2023-04-02T02:28:26.177Z,12.04
2023-04-02T02:31:41.967Z,12.10
2023-04-02T02:34:18.764Z,11.69
2023-04-02T02:37:00.812Z,11.60
2023-04-02T02:43:37.318Z,11.57
2023-04-02T02:46:08.070Z,11.69
2023-04-02T02:49:00.453Z,11.77
2023-04-02T02:51:46.272Z,11.79
2023-04-02T02:54:55.305Z,11.94
2023-04-02T02:58:04.664Z,12.02
2023-04-02T03:00:59.113Z,12.07
2023-04-02T03:03:31.508Z,12.32
2023-04-02T03:11:01.201Z,12.28
2023-04-02T03:13:35.587Z,12.10
2023-04-02T03:17:14.274Z,12.05
2023-04-02T03:20:10.754Z,11.98
2023-04-02T03:22:44.413Z,11.93
2023-04-02T03:26:02.475Z,11.93
2023-04-02T03:28:58.467Z,12.06
2023-04-02T03:31:33.501Z,11.95
2023-04-02T03:34:40.872Z,12.15
2023-04-02T03:37:23.019Z,12.16
2023-04-02T03:40:02.109Z,12.07
2023-04-02T03:42:41.792Z,11.99
2023-04-02T03:46:10.553Z,12.16
2023-04-02T03:49:06.281Z,12.19
2023-04-02T03:52:08.241Z,11.96
2023-04-02T03:55:38.294Z,11.91
2023-04-02T04:02:57.595Z,11.81
2023-04-02T04:09:46.875Z,11.98
2023-04-02T04:17:17.381Z,11.91
2023-04-02T04:23:51.435Z,11.49
2023-04-02T04:26:53.619Z,11.36
2023-04-02T04:29:31.051Z,11.37
2023-04-02T04:33:34.180Z,11.53
2023-04-02T04:41:33.039Z,11.66
2023-04-02T04:48:39.722Z,11.31
2023-04-02T04:51:30.226Z,11.26
2023-04-02T04:54:03.500Z,11.41
2023-04-02T05:01:19.019Z,12.08
2023-04-02T05:05:07.711Z,12.11
2023-04-02T05:07:48.013Z,12.18
2023-04-02T05:10:33.262Z,12.29
2023-04-02T05:13:14.026Z,12.20
2023-04-02T05:20:24.102Z,12.16
2023-04-02T05:23:00.962Z,12.07
2023-04-02T05:25:33.402Z,11.96
2023-04-02T05:28:30.139Z,12.04
2023-04-02T05:31:09.304Z,12.13
2023-04-02T05:38:26.922Z,12.12
2023-04-02T05:45:47.634Z,11.99
2023-04-02T05:48:20.197Z,11.90
2023-04-02T05:50:53.144Z,11.90
2023-04-02T05:53:38.085Z,11.79
2023-04-02T05:57:06.651Z,11.73
2023-04-02T05:59:56.745Z,11.66
2023-04-02T06:02:24.470Z,11.62
2023-04-02T06:06:22.940Z,11.61
2023-04-02T06:08:57.833Z,11.96
2023-04-02T06:11:56.992Z,11.96
2023-04-02T06:14:49.929Z,11.83
2023-04-02T06:17:19.943Z,12.08
2023-04-02T06:19:48.650Z,12.05
2023-04-02T06:22:22.509Z,12.15
2023-04-02T06:25:01.798Z,12.00
2023-04-02T06:27:42.115Z,12.40
2023-04-02T06:31:03.618Z,12.51
2023-04-02T06:34:01.799Z,12.51
2023-04-02T06:36:34.845Z,12.46
2023-04-02T06:39:19.901Z,12.88
2023-04-02T06:42:20.024Z,12.64
2023-04-02T06:45:23.391Z,12.72
2023-04-02T06:48:21.657Z,12.63
2023-04-02T06:51:19.051Z,12.58
2023-04-02T06:54:32.998Z,12.91
2023-04-02T07:00:42.515Z,12.71
2023-04-02T07:03:44.097Z,12.83
2023-04-02T07:06:22.381Z,12.92
2023-04-02T07:09:26.063Z,12.77
2023-04-02T07:11:56.335Z,12.96
2023-04-02T07:14:24.090Z,12.83
2023-04-02T07:16:51.904Z,12.84
2023-04-02T07:19:31.364Z,12.51
2023-04-02T07:23:09.582Z,12.81
2023-04-02T07:25:37.316Z,13.00
2023-04-02T07:28:07.904Z,13.05
2023-04-02T07:30:35.824Z,12.90
2023-04-02T07:33:03.463Z,12.65
2023-04-02T07:35:31.195Z,12.72
2023-04-02T07:37:58.892Z,12.93
2023-04-02T08:20:50.496Z,13.59
2023-04-02T08:23:53.592Z,13.10
2023-04-02T08:26:21.251Z,13.25
2023-04-02T08:28:48.917Z,13.26
2023-04-02T08:31:17.330Z,13.62
2023-04-02T08:34:13.836Z,13.70
2023-04-02T08:36:44.297Z,13.71
2023-04-02T08:39:12.819Z,13.93
2023-04-02T08:42:04.445Z,13.73
2023-04-02T08:46:58.611Z,13.70
2023-04-02T10:36:52.719Z,20.85
2023-04-02T10:39:40.673Z,20.03
2023-04-02T10:42:30.630Z,19.84
2023-04-02T10:45:12.641Z,19.20
2023-04-02T10:48:12.296Z,18.89
2023-04-02T10:51:11.300Z,19.14
2023-04-02T10:58:20.661Z,19.61
2023-04-02T11:17:31.420Z,19.25
2023-04-02T11:24:05.065Z,20.04
2023-04-02T11:26:41.504Z,20.35
2023-04-02T11:37:10.036Z,20.32
2023-04-02T11:40:11.910Z,19.84
2023-04-02T11:43:25.497Z,19.94
2023-04-02T11:46:03.365Z,19.95
2023-04-02T11:48:37.674Z,18.96
2023-04-02T11:51:23.472Z,17.23
2023-04-02T11:54:25.886Z,16.37
2023-04-02T12:01:28.575Z,13.76
2023-04-02T12:08:08.391Z,13.45
2023-04-02T12:15:34.944Z,13.70
2023-04-02T12:19:18.986Z,13.65
2023-04-02T12:22:39.268Z,13.74
2023-04-02T12:25:58.655Z,13.72
2023-04-02T12:37:10.546Z,14.29
2023-04-02T12:40:41.337Z,14.94
2023-04-02T12:44:16.446Z,15.64
2023-04-02T12:46:49.021Z,15.93
2023-04-02T12:54:13.362Z,16.10
2023-04-02T13:12:37.459Z,15.34
2023-04-02T13:20:59.952Z,16.04
2023-04-02T13:24:47.184Z,16.34
2023-04-02T13:28:07.004Z,16.49
2023-04-02T13:31:39.772Z,16.50
2023-04-02T13:35:00.375Z,16.56
2023-04-02T13:37:30.693Z,16.80
2023-04-02T13:41:18.453Z,16.90
2023-04-02T13:43:46.433Z,16.66
2023-04-02T13:51:07.271Z,16.81
2023-04-02T13:58:04.863Z,17.31
2023-04-02T14:01:52.426Z,17.39
2023-04-02T14:06:12.680Z,17.62
2023-04-02T14:09:02.941Z,17.78
2023-04-02T14:12:15.669Z,17.82
2023-04-02T15:25:29.096Z,18.52
2023-04-02T15:29:28.804Z,18.66
2023-04-02T15:32:53.327Z,18.55
2023-04-02T15:36:26.797Z,18.44
2023-04-02T15:39:22.533Z,18.14
2023-04-02T15:42:14.174Z,18.00
2023-04-02T15:44:55.244Z,17.79
2023-04-02T15:48:19.016Z,17.64
2023-04-02T15:52:08.040Z,17.89
2023-04-02T15:54:50.208Z,17.65
2023-04-02T15:57:42.710Z,17.69
2023-04-02T16:21:34.043Z,16.98
2023-04-02T16:24:31.993Z,17.06
2023-04-02T16:28:24.600Z,17.04
2023-04-02T16:31:34.822Z,16.90
2023-04-02T16:39:36.748Z,16.60
2023-04-02T16:45:36.061Z,16.43
2023-04-02T16:54:36.691Z,16.09
2023-04-02T16:57:10.493Z,16.08
2023-04-02T16:59:46.015Z,15.94
2023-04-02T17:02:50.233Z,15.97
2023-04-02T17:05:32.602Z,15.86
2023-04-02T17:08:44.483Z,15.80
2023-04-02T17:11:42.261Z,15.60
2023-04-02T17:15:27.230Z,15.69
2023-04-02T17:48:28.914Z,14.58
2023-04-02T17:51:51.190Z,14.57
2023-04-02T17:59:02.601Z,14.46
2023-04-02T18:21:56.220Z,13.91
2023-04-02T18:27:42.180Z,13.91
2023-04-02T18:42:38.413Z,13.71
2023-04-02T18:45:52.776Z,13.67
2023-04-02T18:49:02.616Z,13.66
2023-04-02T18:52:02.850Z,13.75
2023-04-02T18:55:13.577Z,13.54
2023-04-02T21:15:06.679Z,13.54
2023-04-02T21:41:53.377Z,13.02
2023-04-02T22:24:19.117Z,11.70
2023-04-02T22:34:46.802Z,12.03
2023-04-02T22:38:07.689Z,11.95
2023-04-02T22:45:22.533Z,11.97
2023-04-02T22:53:38.216Z,11.60
2023-04-02T23:10:11.348Z,11.32
2023-04-02T23:13:11.454Z,11.24
2023-04-02T23:20:47.770Z,11.25
2023-04-02T23:24:07.785Z,11.14
2023-04-02T23:27:03.972Z,11.20
2023-04-02T23:30:02.439Z,11.18
2023-04-02T23:37:25.012Z,10.79
2023-04-02T23:43:26.114Z,10.59
2023-04-02T23:46:38.398Z,10.65
2023-04-02T23:49:56.862Z,10.58
2023-04-02T23:52:50.141Z,10.49
